South Reno (Wolf Run), Nevada Weather observations

Data are for observation ending at time listed.
 Day   Time    Ave.   Ave.  Ave.  Vector   Max.   Stn.    Total    Solar   Ave.  
  of    of     Air    Rel.  Wind   Wind    Wind   Baro.  Precip.   Rad.    Soil  
Year   Day     Temp.  Hum.  Speed  Dir.    Gust   Pres.                    Temp. 
2026   (PST)    F      %     mph   deg.    mph     mb.     in.     W/m2     F   
------------------------------------------------------------------------------
 129   14:10   82.5    13    0.9    39      4.9  99999.0    0.00      11    65.4
 129   14:20   82.0    12    3.3    80      7.4  99999.0    0.00      10    65.8
 129   14:30   81.6    12    2.7    73      9.0  99999.0    0.00      10    66.1
 129   14:40   82.4    12    2.0   140      5.5  99999.0    0.00      10    66.4
 129   14:50   82.7    11    2.4    67      6.9  99999.0    0.00       9    66.7
 129   15:00   82.3    11    2.9    74      7.1  99999.0    0.00       9    66.9
 129   15:10   83.4    12    2.3    98      8.5  99999.0    0.00       9    67.1
 129   15:20   82.6    12    0.8   122      4.9  99999.0    0.00       9    67.4
 129   15:30   83.2    11    2.4    17      6.1  99999.0    0.00       9    67.6
 129   15:40   83.1    10    2.5    57      6.0  99999.0    0.00       9    67.8
 129   15:50   83.8    12    0.6   218      3.5  99999.0    0.00       9    68.0
 129   16:00   83.3    12    1.6   337      6.1  99999.0    0.00       9    68.1
 129   16:10   82.7    13    0.5   254      3.8  99999.0    0.00       9    68.4
 129   16:20   83.5    11    1.3     5      5.6  99999.0    0.00       9    68.5
 129   16:30   83.1    10    2.5    36      6.4  99999.0    0.00       8    68.7
 129   16:40   82.6    10    2.4    35      5.1  99999.0    0.00       7    68.8
 129   16:50   81.5    10    2.2    28      6.2  99999.0    0.00       7    69.0
 129   17:00   82.6     9    1.2     6      3.5  99999.0    0.00       7    69.2
 129   17:10   81.3    10    0.5   210      2.8  99999.0    0.00       7    69.3
 129   17:20   79.6    11    1.7    73      5.6  99999.0    0.00       6    69.4
 129   17:30   80.0    10    2.5    69      6.4  99999.0    0.00       5    69.5
 129   17:40   79.9    10    2.3    89      6.1  99999.0    0.00       5    69.5
 129   17:50   80.6    11    0.8    71      3.9  99999.0    0.00       6    69.6
 129   18:00   79.6    10    1.8    76      4.6  99999.0    0.00       6    69.7
 129   18:10   77.9    10    2.7    75      5.7  99999.0    0.00       5    69.7
 129   18:20   76.3    10    1.8    74      4.4  99999.0    0.00       4    69.7
 129   18:30   75.0    12    0.5   101      3.3  99999.0    0.00       3    69.7
 129   18:40   72.9    15    0.6   113      4.5  99999.0    0.00       3    69.7
 129   18:50   68.8    19    1.7   226      3.2  99999.0    0.00       3    69.7
 129   19:00   68.5    19    2.1   232      4.5  99999.0    0.00       3    69.7
 129   19:10   66.0    21    2.1   238      5.8  99999.0    0.00       3    69.6
 129   19:20   66.7    19    4.9   237      7.8  99999.0    0.00       1    69.5
 129   19:30   65.9    21    3.6   234      7.6  99999.0    0.00       0    69.5
 129   19:40   65.4    20    4.7   239      8.5  99999.0    0.00       0    69.4
 129   19:50   62.0    30    4.1   245      8.1  99999.0    0.00       0    69.4
 129   20:00   60.8    30    3.7   245      8.2  99999.0    0.00       1    69.4
 129   20:10   58.6    34    4.0   244      7.8  99999.0    0.00       1    69.3
 129   20:20   58.7    34    2.6   250      7.8  99999.0    0.00       2    69.2
 129   20:30   57.9    33    0.8   248      5.0  99999.0    0.00       2    69.1
 129   20:40   58.2    32    1.8   248      8.5  99999.0    0.00       2    69.0
 129   20:50   61.5    24    4.4   246      8.2  99999.0    0.00       1    68.8
 129   21:00   62.5    21    4.5   244      8.8  99999.0    0.00       1    68.6
 129   21:10   62.7    20    4.6   242      8.7  99999.0    0.00       1    68.5
 129   21:20   62.4    22    3.5   244      8.0  99999.0    0.00       1    68.3
 129   21:30   62.8    19    5.8   242      8.2  99999.0    0.00       1    68.2
 129   21:40   62.3    20    5.5   244      9.1  99999.0    0.00       1    67.2
 129   21:50   62.3    19    6.2   242      9.4  99999.0    0.00       1    67.3
 129   22:00   61.6    20    4.8   244      9.0  99999.0    0.00       1    67.2
 129   22:10   61.7    20    3.4   248      8.1  99999.0    0.00       1    67.0
 129   22:20   62.2    19    4.3   246      8.8  99999.0    0.00       1    66.9
 129   22:30   61.8    20    3.3   247     10.1  99999.0    0.00       1    66.7
 129   22:40   62.1    19    5.5   242     11.0  99999.0    0.00       0    66.6
 129   22:50   62.3    19    5.4   244      9.8  99999.0    0.00       0    66.5
 129   23:00   61.6    19    5.8   242     11.0  99999.0    0.00       0    66.4
 129   23:10   61.8    19    6.6   241     11.6  99999.0    0.00       0    66.3
 129   23:20   61.3    19    5.1   242      9.1  99999.0    0.00       0    66.1
 129   23:30   61.3    19    4.5   237      9.0  99999.0    0.00       0    66.0
 129   23:40   60.0    22    0.9   341      4.4  99999.0    0.00       0    65.9
 129   23:50   58.8    22    2.5    25      5.1  99999.0    0.00       0    65.9
 130    0:00   58.9    22    0.8   336      5.1  99999.0    0.00       0    65.8
 130    0:10   58.6    22    0.3   309      2.9  99999.0    0.00       0    65.7
 130    0:20   58.7    22    0.9   237      5.8  99999.0    0.00       0    65.6
 130    0:30   58.3    24    4.1   227      6.4  99999.0    0.00       0    65.5
 130    0:40   58.8    24    5.3   238      7.6  99999.0    0.00       0    65.4
 130    0:50   55.0    36    0.4   250      4.2  99999.0    0.00       0    65.3
 130    1:00   56.1    26    1.4    40      6.1  99999.0    0.00       0    65.2
 130    1:10   55.7    29    0.2   256      2.9  99999.0    0.00       0    65.1
 130    1:20   50.6    40    2.3   251      4.4  99999.0    0.00       0    65.1
 130    1:30   51.2    39    4.0   245      6.4  99999.0    0.00       0    65.0
 130    1:40   52.0    37    3.1   246      5.4  99999.0    0.00       0    64.9
 130    1:50   52.6    34    1.2   248      3.9  99999.0    0.00       0    64.8
 130    2:00   53.8    30    2.9   242      4.9  99999.0    0.00       0    64.7
 130    2:10   55.0    30    1.4   246      5.0  99999.0    0.00       0    64.6
 130    2:20   54.2    28    0.5   341      3.4  99999.0    0.00       0    64.5
 130    2:30   55.1    27    0.5   243      3.4  99999.0    0.00       0    64.4
 130    2:40   54.1    28    0.4   290      3.7  99999.0    0.00       0    64.3
 130    2:50   52.4    31    0.3   322      3.4  99999.0    0.00       0    64.3
 130    3:00   53.7    26    0.6   324      2.9  99999.0    0.00       0    64.2
 130    3:10   54.2    27    1.4   339      3.9  99999.0    0.00       0    64.1
 130    3:20   53.7    28    0.0     0      0.0  99999.0    0.00       0    64.0
 130    3:30   53.9    29    1.3   245      5.6  99999.0    0.00       0    63.9
 130    3:40   53.1    29    0.2   245      1.7  99999.0    0.00       0    63.8
 130    3:50   52.5    28    0.0     0      0.0  99999.0    0.00       0    63.8
 130    4:00   53.1    27    0.2   239      1.5  99999.0    0.00       0    63.7
 130    4:10   53.3    28    1.3   244      6.1  99999.0    0.00       0    63.6
 130    4:20   52.3    30    1.5   240      4.1  99999.0    0.00       0    63.5
 130    4:30   53.3    27    0.3   228      2.1  99999.0    0.00       0    63.4
 130    4:40   52.3    30    0.6   243      2.0  99999.0    0.00       1    63.4
 130    4:50   55.6    24    2.4   231      4.8  99999.0    0.00       2    63.2
 130    5:00   55.6    25    0.2   224      2.4  99999.0    0.00       3    63.2
 130    5:10   53.2    30    0.0     0      0.0  99999.0    0.00       3    63.1
 130    5:20   52.3    31    0.0     0      0.0  99999.0    0.00       3    63.1
 130    5:30   54.7    29    0.0     0      0.0  99999.0    0.00       3    63.0
 130    5:40   56.9    31    0.0   176      1.3  99999.0    0.00       3    62.9
 130    5:50   57.5    32    0.7   116      3.1  99999.0    0.00       4    62.8
 130    6:00   57.4    34    0.1   107      1.2  99999.0    0.00       4    62.7
 130    6:10   57.1    36    0.2    57      1.6  99999.0    0.00       4    62.7
 130    6:20   58.9    35    0.4    54      1.9  99999.0    0.00       4    62.6
 130    6:30   60.0    35    1.2    76      3.3  99999.0    0.00       4    62.5
 130    6:40   60.0    34    0.5    51      2.0  99999.0    0.00       4    62.4
 130    6:50   59.8    35    1.4    51      4.5  99999.0    0.00       4    62.3
 130    7:00   59.2    36    3.3    31      6.1  99999.0    0.00       4    62.3
 130    7:10   59.2    36    2.9    24      6.0  99999.0    0.00       4    62.2
 130    7:20   60.2    36    2.4    21      5.5  99999.0    0.00       4    62.2
 130    7:30   61.3    33    2.4    14      5.8  99999.0    0.00       5    62.1
 130    7:40   62.5    33    1.6    28      4.8  99999.0    0.00       5    62.0
 130    7:50   63.4    33    2.1    53      5.3  99999.0    0.00       5    62.0
 130    8:00   65.1    31    1.6    59      3.3  99999.0    0.00       5    61.9
 130    8:10   66.3    29    0.7    34      2.8  99999.0    0.00       6    61.9
 130    8:20   67.2    27    1.0     5      3.6  99999.0    0.00       6    61.8
 130    8:30   67.9    28    1.6    32      3.5  99999.0    0.00       7    61.8
 130    8:40   69.3    26    2.0    27      4.5  99999.0    0.00       7    61.7
 130    8:50   70.4    26    2.7    41      5.6  99999.0    0.00       7    61.7
 130    9:00   70.5    25    2.1    17      5.3  99999.0    0.00       7    61.6
 130    9:10   72.3    25    2.1    26      5.5  99999.0    0.00       7    61.6
 130    9:20   73.2    24    2.2    54      4.2  99999.0    0.00       7    61.6
 130    9:30   74.1    22    1.9    43      4.5  99999.0    0.00       7    61.5
 130    9:40   74.6    22    1.7    49      3.7  99999.0    0.00       7    61.5
 130    9:50   76.5    22    1.4    34      5.4  99999.0    0.00       8    61.4
 130   10:00   77.5    20    2.2    56      4.8  99999.0    0.00       8    61.5
 130   10:10   77.8    20    1.8    50      5.8  99999.0    0.00       8    61.5
 130   10:20   78.5    18    1.6    62      4.7  99999.0    0.00       9    61.5
 130   10:30   80.8    20    0.8    66      3.8  99999.0    0.00      10    61.4
 130   10:40   80.2    17    2.3    69      5.6  99999.0    0.00      10    61.5
 130   10:50   80.8    17    1.0    23      3.8  99999.0    0.00      10    61.5
 130   11:00   82.0    17    2.2    76      6.7  99999.0    0.00      10    61.6
 130   11:10   82.0    15    3.1    66      7.1  99999.0    0.00       9    61.8
 130   11:20   81.4    15    3.2    53      5.8  99999.0    0.00       9    62.0
 130   11:30   82.5    14    2.8    59      6.5  99999.0    0.00       9    62.1
 130   11:40   83.8    14    2.7    22      5.3  99999.0    0.00       9    62.2
 130   11:50   82.7    16    1.6   324      6.1  99999.0    0.00       9    62.4
 130   12:00   83.4    17    0.8   293      5.3  99999.0    0.00      10    62.5
 130   12:10   83.8    16    2.4   336      6.6  99999.0    0.00      10    62.8
 130   12:20   84.1    14    3.7   229      9.3  99999.0    0.00       9    63.1
 130   12:30   83.8    14    3.8   222      8.8  99999.0    0.00       9    63.4
 130   12:40   84.8    13    5.3   209     10.5  99999.0    0.00       9    63.6
 130   12:50   83.9    14    4.7   246     14.2  99999.0    0.00       9    63.9
 130   13:00   84.2    13    6.8   240     13.4  99999.0    0.00       9    64.2
 130   13:10   83.9    13    7.8   241     13.2  99999.0    0.00       9    64.5
 130   13:20   83.9    13    7.5   246     14.4  99999.0    0.00       9    64.8
 130   13:30   83.9    12    9.1   236     17.6  99999.0    0.00       9    65.1
 130   13:40   83.9    12    9.4   235     16.1  99999.0    0.00       9    65.3
 130   13:50   83.7    15    5.2   246     10.7  99999.0    0.00       9    65.5
 130   14:00   84.1    15    6.3   239     13.7  99999.0    0.00       9    65.8

Return to South Reno, Nevada graphs page.


Western Regional Climate Center,wrcc@dri.edu